createdAt,value
2022-10-19T00:01:21.254Z,9.67
2022-10-19T00:03:52.208Z,9.96
2022-10-19T00:06:26.664Z,9.68
2022-10-19T00:08:56.733Z,9.80
2022-10-19T00:11:24.954Z,9.91
2022-10-19T00:13:53.382Z,9.69
2022-10-19T00:16:21.658Z,9.82
2022-10-19T00:18:49.191Z,9.75
2022-10-19T00:21:18.930Z,9.71
2022-10-19T00:23:46.717Z,9.64
2022-10-19T00:26:14.396Z,9.62
2022-10-19T00:28:42.894Z,9.79
2022-10-19T00:31:16.104Z,10.14
2022-10-19T00:33:46.890Z,10.27
2022-10-19T00:36:20.439Z,10.37
2022-10-19T00:38:48.534Z,10.45
2022-10-19T00:41:17.676Z,10.63
2022-10-19T00:44:01.492Z,10.88
2022-10-19T00:46:32.604Z,10.96
2022-10-19T00:49:14.123Z,11.16
2022-10-19T00:51:46.215Z,11.31
2022-10-19T00:54:14.316Z,11.51
2022-10-19T00:56:44.233Z,11.53
2022-10-19T00:59:14.970Z,11.29
2022-10-19T01:01:44.230Z,11.14
2022-10-19T01:04:12.695Z,10.68
2022-10-19T01:06:41.677Z,10.69
2022-10-19T01:09:09.652Z,10.76
2022-10-19T01:11:51.533Z,10.96
2022-10-19T01:14:40.379Z,11.00
2022-10-19T01:17:07.815Z,10.63
2022-10-19T01:20:13.120Z,10.65
2022-10-19T01:23:19.301Z,10.88
2022-10-19T01:26:19.434Z,11.07
2022-10-19T01:29:19.150Z,11.18
2022-10-19T01:31:46.593Z,11.02
2022-10-19T01:34:38.767Z,11.05
2022-10-19T01:37:27.124Z,11.20
2022-10-19T01:40:06.930Z,11.37
2022-10-19T01:45:28.818Z,11.19
2022-10-19T01:48:03.786Z,11.11
2022-10-19T01:50:50.682Z,11.11
2022-10-19T01:53:19.885Z,11.18
2022-10-19T01:55:51.299Z,11.04
2022-10-19T01:58:24.951Z,11.05
2022-10-19T02:00:54.409Z,11.09
2022-10-19T02:03:24.341Z,10.96
2022-10-19T02:05:53.497Z,10.85
2022-10-19T02:08:30.890Z,10.94
2022-10-19T02:10:59.898Z,11.00
2022-10-19T02:13:28.712Z,10.81
2022-10-19T02:15:59.742Z,10.85
2022-10-19T02:18:32.937Z,10.77
2022-10-19T02:21:05.535Z,10.95
2022-10-19T02:23:33.252Z,11.30
2022-10-19T02:26:00.883Z,11.44
2022-10-19T02:28:30.034Z,10.89
2022-10-19T02:30:58.799Z,10.50
2022-10-19T02:33:27.524Z,10.71
2022-10-19T02:35:56.265Z,10.68
2022-10-19T02:38:24.942Z,10.64
2022-10-19T02:40:56.832Z,10.54
2022-10-19T02:43:26.714Z,10.62
2022-10-19T02:46:04.065Z,10.49
2022-10-19T02:48:34.493Z,10.41
2022-10-19T02:51:02.751Z,10.35
2022-10-19T02:53:30.341Z,10.58
2022-10-19T02:55:57.887Z,10.75
2022-10-19T02:58:25.459Z,11.11
2022-10-19T03:00:52.974Z,10.99
2022-10-19T03:03:20.525Z,11.37
2022-10-19T03:05:48.092Z,10.96
2022-10-19T03:08:15.834Z,10.92
2022-10-19T03:10:43.363Z,11.26
2022-10-19T03:13:10.842Z,11.05
2022-10-19T03:15:38.418Z,11.29
2022-10-19T03:18:06.041Z,11.50
2022-10-19T03:20:33.591Z,12.48
2022-10-19T03:23:01.315Z,12.43
2022-10-19T03:25:28.772Z,11.98
2022-10-19T03:27:56.313Z,11.85
2022-10-19T03:30:23.874Z,11.79
2022-10-19T03:32:51.369Z,11.57
2022-10-19T03:35:19.304Z,11.40
2022-10-19T03:37:46.903Z,11.30
2022-10-19T03:40:15.490Z,11.10
2022-10-19T03:42:42.929Z,11.18
2022-10-19T03:45:10.685Z,11.44
2022-10-19T03:47:38.137Z,11.74
2022-10-19T03:50:14.055Z,11.67
2022-10-19T03:52:41.734Z,11.96
2022-10-19T03:55:10.425Z,12.11
2022-10-19T03:57:38.186Z,12.28
2022-10-19T04:00:06.178Z,12.50
2022-10-19T04:02:39.479Z,12.55
2022-10-19T04:05:07.653Z,12.77
2022-10-19T04:07:35.294Z,12.87
2022-10-19T04:10:04.506Z,13.08
2022-10-19T04:12:34.200Z,12.88
2022-10-19T04:15:01.821Z,12.96
2022-10-19T04:17:30.074Z,12.76
2022-10-19T04:20:01.088Z,12.55
2022-10-19T04:22:28.951Z,12.31
2022-10-19T04:24:56.421Z,12.50
2022-10-19T04:27:23.955Z,12.61
2022-10-19T04:29:52.222Z,12.52
2022-10-19T04:32:19.722Z,12.51
2022-10-19T04:34:47.123Z,12.56
2022-10-19T04:37:14.584Z,12.22
2022-10-19T04:39:45.284Z,12.06
2022-10-19T04:42:12.808Z,11.94
2022-10-19T04:44:40.413Z,11.92
2022-10-19T04:47:07.851Z,11.77
2022-10-19T04:49:35.615Z,11.41
2022-10-19T04:52:03.425Z,11.28
2022-10-19T04:54:31.085Z,10.98
2022-10-19T04:56:58.651Z,11.02
2022-10-19T04:59:26.277Z,10.93
2022-10-19T05:01:53.834Z,10.75
2022-10-19T05:04:21.675Z,10.56
2022-10-19T05:06:49.128Z,10.32
2022-10-19T05:09:17.277Z,10.23
2022-10-19T05:11:44.830Z,10.19
2022-10-19T05:14:12.304Z,10.33
2022-10-19T05:16:39.878Z,10.22
2022-10-19T05:19:07.683Z,10.08
2022-10-19T05:21:35.340Z,9.86
2022-10-19T05:24:02.985Z,9.75
2022-10-19T05:26:30.771Z,9.64
2022-10-19T05:29:04.815Z,9.99
2022-10-19T05:31:33.943Z,10.36
2022-10-19T05:34:03.144Z,10.81
2022-10-19T05:36:36.829Z,10.92
2022-10-19T05:39:13.158Z,10.86
2022-10-19T05:41:46.032Z,11.06
2022-10-19T05:44:19.163Z,11.58
2022-10-19T05:46:47.673Z,11.89
2022-10-19T05:49:18.480Z,12.54
2022-10-19T05:51:46.130Z,13.06
2022-10-19T05:54:14.473Z,13.45
2022-10-19T05:56:43.376Z,13.86
2022-10-19T05:59:15.969Z,14.29
2022-10-19T06:01:43.988Z,14.37
2022-10-19T06:04:14.088Z,14.51
2022-10-19T06:06:42.952Z,14.73
2022-10-19T06:09:12.331Z,14.81
2022-10-19T06:11:41.435Z,15.08
2022-10-19T06:14:13.417Z,15.14
2022-10-19T06:16:41.279Z,15.34
2022-10-19T06:19:08.882Z,15.29
2022-10-19T06:21:37.268Z,15.40
2022-10-19T06:24:06.657Z,15.36
2022-10-19T06:26:35.409Z,15.55
2022-10-19T06:29:04.957Z,15.46
2022-10-19T06:31:35.592Z,15.65
2022-10-19T06:34:03.842Z,15.79
2022-10-19T06:36:32.363Z,15.69
2022-10-19T06:39:01.783Z,15.86
2022-10-19T06:41:31.358Z,15.91
2022-10-19T06:44:12.758Z,16.04
2022-10-19T06:46:40.225Z,16.23
2022-10-19T06:49:07.752Z,16.27
2022-10-19T06:51:35.288Z,16.44
2022-10-19T06:54:03.025Z,16.74
2022-10-19T06:56:30.594Z,16.74
2022-10-19T06:58:58.850Z,16.74
2022-10-19T07:01:26.850Z,17.20
2022-10-19T07:03:55.343Z,17.70
2022-10-19T07:06:24.015Z,18.34
2022-10-19T07:08:52.586Z,20.30
2022-10-19T07:11:22.457Z,27.57
2022-10-19T07:13:52.423Z,30.86
2022-10-19T07:16:21.307Z,31.07
2022-10-19T07:18:51.905Z,32.28
2022-10-19T07:21:21.616Z,30.22
2022-10-19T07:23:49.492Z,31.00
2022-10-19T07:26:23.746Z,31.97
2022-10-19T07:28:51.580Z,33.36
2022-10-19T07:31:21.012Z,33.84
2022-10-19T07:33:59.609Z,33.29
2022-10-19T07:36:30.316Z,34.38
2022-10-19T07:38:58.316Z,32.54
2022-10-19T07:41:27.004Z,35.63
2022-10-19T07:43:54.985Z,34.72
2022-10-19T07:46:25.538Z,35.24
2022-10-19T07:48:53.639Z,35.83
2022-10-19T07:51:22.744Z,35.81
2022-10-19T07:53:50.330Z,36.69
2022-10-19T07:56:25.395Z,38.26
2022-10-19T07:58:55.739Z,36.10
2022-10-19T08:01:26.599Z,39.09
2022-10-19T08:06:43.279Z,39.71
2022-10-19T08:09:15.649Z,39.82
2022-10-19T08:11:50.573Z,43.87
2022-10-19T08:14:18.090Z,41.07
2022-10-19T08:16:45.567Z,42.57
2022-10-19T08:19:15.789Z,39.95
2022-10-19T08:21:46.190Z,39.37
2022-10-19T08:24:15.867Z,41.45
2022-10-19T08:26:43.756Z,41.41
2022-10-19T08:29:13.124Z,40.16
2022-10-19T08:31:42.283Z,40.40
2022-10-19T08:34:13.319Z,42.00
2022-10-19T08:36:44.050Z,43.94
2022-10-19T08:39:13.182Z,42.92
2022-10-19T08:41:40.631Z,42.59
2022-10-19T08:44:42.127Z,39.62
2022-10-19T08:47:31.361Z,42.05
2022-10-19T08:50:00.231Z,41.25
2022-10-19T08:52:34.735Z,43.84
2022-10-19T08:55:09.111Z,44.12
2022-10-19T08:58:00.954Z,40.67
2022-10-19T09:00:54.345Z,41.34
2022-10-19T09:03:37.713Z,43.30
2022-10-19T09:06:41.878Z,43.12
2022-10-19T09:09:13.351Z,43.05
2022-10-19T09:11:46.211Z,42.89
2022-10-19T09:14:22.781Z,42.32
2022-10-19T09:16:50.708Z,42.46
2022-10-19T09:19:25.766Z,42.58
2022-10-19T09:21:58.069Z,39.95
2022-10-19T09:24:50.583Z,40.19
2022-10-19T09:27:23.367Z,40.20
2022-10-19T09:30:00.784Z,41.90
2022-10-19T09:32:38.705Z,38.97
2022-10-19T09:35:30.523Z,38.50
2022-10-19T09:37:58.331Z,39.04
2022-10-19T09:40:29.120Z,38.97
2022-10-19T09:42:58.361Z,38.56
2022-10-19T09:45:41.122Z,37.92
2022-10-19T09:48:39.620Z,36.56
2022-10-19T09:51:18.105Z,35.16
2022-10-19T09:54:01.808Z,35.03
2022-10-19T09:56:40.751Z,36.11
2022-10-19T09:59:23.473Z,36.37
2022-10-19T10:02:13.771Z,34.63
2022-10-19T10:04:41.184Z,33.97
2022-10-19T10:07:16.305Z,34.17
2022-10-19T10:09:44.997Z,35.39
2022-10-19T10:12:15.373Z,35.16
2022-10-19T10:14:44.408Z,34.50
2022-10-19T10:17:20.479Z,34.33
2022-10-19T10:19:51.393Z,35.06
2022-10-19T10:22:57.299Z,34.09
2022-10-19T10:25:33.922Z,34.04
2022-10-19T10:28:16.928Z,33.49
2022-10-19T10:30:45.938Z,33.23
2022-10-19T10:33:27.369Z,35.03
2022-10-19T10:36:11.350Z,34.79
2022-10-19T10:38:47.158Z,36.04
2022-10-19T10:41:17.775Z,34.81
2022-10-19T10:43:58.583Z,36.12
2022-10-19T10:46:34.482Z,35.68
2022-10-19T10:49:08.273Z,35.76
2022-10-19T10:51:49.216Z,34.23
2022-10-19T10:54:38.238Z,34.38
2022-10-19T10:57:15.889Z,32.32
2022-10-19T10:59:54.231Z,31.97
2022-10-19T11:03:13.493Z,31.83
2022-10-19T11:05:46.682Z,31.72
2022-10-19T11:08:25.307Z,33.09
2022-10-19T11:11:01.856Z,32.91
2022-10-19T11:13:50.274Z,32.70
2022-10-19T11:16:23.928Z,32.82
2022-10-19T11:18:57.018Z,31.59
2022-10-19T11:21:31.127Z,33.12
2022-10-19T11:24:13.519Z,32.06
2022-10-19T11:26:55.922Z,31.72
2022-10-19T11:29:46.333Z,31.34
2022-10-19T11:32:46.026Z,30.76
2022-10-19T11:35:19.464Z,30.93
2022-10-19T11:37:55.119Z,30.12
2022-10-19T11:40:54.190Z,31.58
2022-10-19T11:43:39.568Z,30.23
2022-10-19T11:46:15.872Z,30.94
2022-10-19T11:49:07.542Z,31.92
2022-10-19T11:51:49.739Z,29.68
2022-10-19T11:54:32.258Z,29.64
2022-10-19T11:57:11.685Z,30.97
2022-10-19T12:00:37.773Z,31.06
2022-10-19T12:03:24.561Z,30.48
2022-10-19T12:06:22.872Z,32.45
2022-10-19T12:09:08.615Z,30.84
2022-10-19T12:12:02.001Z,33.39
2022-10-19T12:14:38.810Z,34.45
2022-10-19T12:19:54.676Z,32.17
2022-10-19T12:22:28.377Z,31.02
2022-10-19T12:24:59.187Z,30.95
2022-10-19T12:27:38.750Z,31.51
2022-10-19T12:30:17.303Z,31.55
2022-10-19T12:32:55.241Z,30.90
2022-10-19T12:35:28.713Z,30.91
2022-10-19T12:38:30.448Z,32.07
2022-10-19T12:41:14.276Z,31.06
2022-10-19T12:43:55.810Z,32.40
2022-10-19T12:46:37.514Z,30.56
2022-10-19T12:49:26.577Z,31.06
2022-10-19T12:51:55.986Z,32.41
2022-10-19T12:54:30.464Z,31.98
2022-10-19T12:57:00.394Z,30.51
2022-10-19T12:59:37.140Z,28.92
2022-10-19T13:02:29.106Z,28.82
2022-10-19T13:04:56.839Z,27.63
2022-10-19T13:07:26.493Z,28.60
2022-10-19T13:10:02.554Z,28.02
2022-10-19T13:12:43.670Z,28.68
2022-10-19T13:15:35.780Z,28.25
2022-10-19T13:18:16.868Z,28.98
2022-10-19T13:20:53.260Z,28.46
2022-10-19T13:23:26.876Z,26.61
2022-10-19T13:26:26.611Z,25.09
2022-10-19T13:28:55.596Z,24.77
2022-10-19T13:31:29.072Z,24.38
2022-10-19T13:33:57.759Z,23.71
2022-10-19T13:36:26.016Z,22.72
2022-10-19T13:38:59.259Z,22.12
2022-10-19T13:41:44.587Z,21.38
2022-10-19T13:44:26.308Z,21.18
2022-10-19T13:46:59.527Z,21.10
2022-10-19T13:49:57.305Z,20.62
2022-10-19T13:53:19.203Z,20.47
2022-10-19T13:56:23.923Z,20.03
2022-10-19T13:59:27.888Z,19.81
2022-10-19T14:02:33.457Z,19.28
2022-10-19T14:05:10.638Z,19.21
2022-10-19T14:07:57.098Z,18.86
2022-10-19T14:10:32.773Z,19.58
2022-10-19T14:13:02.230Z,19.24
2022-10-19T14:15:33.583Z,18.88
2022-10-19T14:18:03.815Z,18.85
2022-10-19T14:20:36.735Z,18.80
2022-10-19T14:23:23.391Z,18.59
2022-10-19T14:25:53.460Z,18.52
2022-10-19T14:28:22.903Z,18.65
2022-10-19T14:31:20.761Z,18.48
2022-10-19T14:33:52.172Z,18.23
2022-10-19T14:36:28.178Z,18.29
2022-10-19T14:38:56.455Z,18.15
2022-10-19T14:41:26.967Z,18.11
2022-10-19T14:43:58.615Z,17.68
2022-10-19T14:46:31.792Z,17.57
2022-10-19T14:49:04.646Z,17.56
2022-10-19T14:51:52.809Z,17.39
2022-10-19T14:54:26.606Z,17.28
2022-10-19T14:56:59.538Z,17.28
2022-10-19T14:59:34.734Z,17.18
2022-10-19T15:02:11.593Z,17.18
2022-10-19T15:04:39.475Z,17.00
2022-10-19T15:07:18.259Z,16.96
2022-10-19T15:09:56.488Z,16.93
2022-10-19T15:12:33.838Z,16.87
2022-10-19T15:15:09.855Z,16.68
2022-10-19T15:17:50.553Z,16.73
2022-10-19T15:20:31.350Z,16.59
2022-10-19T15:23:02.066Z,16.59
2022-10-19T15:25:36.822Z,16.53
2022-10-19T15:28:31.937Z,16.33
2022-10-19T15:31:04.889Z,16.01
2022-10-19T15:33:38.894Z,15.90
2022-10-19T15:36:08.671Z,15.67
2022-10-19T15:38:36.353Z,15.70
2022-10-19T15:41:05.085Z,15.54
2022-10-19T15:43:35.179Z,15.38
2022-10-19T15:46:05.471Z,15.40
2022-10-19T15:48:44.443Z,15.31
2022-10-19T15:51:27.200Z,15.33
2022-10-19T15:54:00.345Z,15.19
2022-10-19T15:56:32.252Z,15.12
2022-10-19T15:59:01.832Z,15.09
2022-10-19T16:01:31.767Z,14.90
2022-10-19T16:04:00.050Z,14.86
2022-10-19T16:06:33.382Z,14.84
2022-10-19T16:09:02.149Z,14.77
2022-10-19T16:11:31.719Z,14.71
2022-10-19T16:13:59.482Z,14.51
2022-10-19T16:16:30.460Z,14.37
2022-10-19T16:18:59.117Z,14.14
2022-10-19T16:21:33.873Z,14.08
2022-10-19T16:24:01.890Z,14.13
2022-10-19T16:26:29.480Z,14.05
2022-10-19T16:28:57.527Z,13.89
2022-10-19T16:31:25.255Z,13.78
2022-10-19T16:33:52.998Z,13.81
2022-10-19T16:36:20.515Z,13.75
2022-10-19T16:38:48.571Z,13.70
2022-10-19T16:41:17.264Z,13.58
2022-10-19T16:43:45.055Z,13.66
2022-10-19T16:46:12.686Z,13.61
2022-10-19T16:48:40.264Z,13.47
2022-10-19T16:51:10.304Z,13.48
2022-10-19T16:53:39.928Z,13.43
2022-10-19T16:56:10.317Z,13.20
2022-10-19T16:58:40.999Z,13.25
2022-10-19T17:01:17.182Z,13.05
2022-10-19T17:03:45.792Z,13.25
2022-10-19T17:06:15.576Z,13.19
2022-10-19T17:09:36.624Z,13.14
2022-10-19T17:11:37.612Z,13.01
2022-10-19T17:14:09.061Z,13.10
2022-10-19T17:16:37.814Z,12.89
2022-10-19T17:19:07.048Z,12.97
2022-10-19T17:21:40.165Z,12.86
2022-10-19T17:24:15.667Z,12.82
2022-10-19T17:26:46.862Z,12.86
2022-10-19T17:29:17.187Z,12.92
2022-10-19T17:31:45.313Z,12.76
2022-10-19T17:34:13.270Z,12.76
2022-10-19T17:36:44.711Z,12.76
2022-10-19T17:39:18.884Z,12.78
2022-10-19T17:41:48.167Z,12.70
2022-10-19T17:44:17.162Z,12.84
2022-10-19T17:46:45.071Z,12.74
2022-10-19T17:49:13.373Z,12.67
2022-10-19T17:51:41.111Z,12.64
2022-10-19T17:54:12.505Z,12.79
2022-10-19T17:56:41.164Z,12.69
2022-10-19T17:59:09.297Z,12.69
2022-10-19T18:01:37.402Z,12.72
2022-10-19T18:04:05.885Z,12.62
2022-10-19T18:06:36.836Z,12.62
2022-10-19T18:09:06.936Z,12.47
2022-10-19T18:11:41.955Z,12.57
2022-10-19T18:14:11.694Z,12.55
2022-10-19T18:16:45.633Z,12.45
2022-10-19T18:19:15.120Z,12.36
2022-10-19T18:21:44.401Z,12.16
2022-10-19T18:24:19.137Z,12.17
2022-10-19T18:26:50.838Z,12.28
2022-10-19T18:29:24.210Z,12.20
2022-10-19T18:31:52.706Z,12.21
2022-10-19T18:34:23.613Z,12.15
2022-10-19T18:36:52.639Z,11.97
2022-10-19T18:39:20.748Z,11.94
2022-10-19T18:41:54.561Z,11.91
2022-10-19T18:44:26.538Z,11.87
2022-10-19T18:46:57.099Z,11.62
2022-10-19T18:49:25.616Z,11.58
2022-10-19T18:51:55.432Z,11.52
2022-10-19T18:54:27.847Z,11.51
2022-10-19T18:56:55.733Z,11.38
2022-10-19T18:59:24.060Z,11.20
2022-10-19T19:01:52.187Z,11.12
2022-10-19T19:04:20.188Z,10.90
2022-10-19T19:06:47.958Z,10.49
2022-10-19T19:09:17.437Z,10.17
2022-10-19T19:11:45.288Z,10.21
2022-10-19T19:14:16.085Z,10.05
2022-10-19T19:16:45.059Z,10.06
2022-10-19T19:19:14.139Z,10.01
2022-10-19T19:21:44.430Z,9.82
2022-10-19T19:24:19.255Z,9.88
2022-10-19T19:26:51.102Z,9.66
2022-10-19T19:29:20.161Z,9.41
2022-10-19T19:31:48.320Z,9.37
2022-10-19T19:34:16.861Z,9.43
2022-10-19T19:36:48.187Z,9.21
2022-10-19T19:39:19.401Z,9.00
2022-10-19T19:41:48.926Z,8.64
2022-10-19T19:44:17.516Z,8.54
2022-10-19T19:46:45.480Z,8.32
2022-10-19T19:49:13.973Z,8.22
2022-10-19T19:51:41.927Z,8.02
2022-10-19T19:54:09.721Z,7.76
2022-10-19T19:56:40.034Z,7.89
2022-10-19T19:59:10.545Z,8.05
2022-10-19T20:01:39.493Z,7.89
2022-10-19T20:04:07.377Z,7.96
2022-10-19T20:06:36.652Z,8.20
2022-10-19T20:09:06.222Z,8.26
2022-10-19T20:11:36.177Z,8.22
2022-10-19T20:14:07.630Z,8.12
2022-10-19T20:16:36.611Z,8.01
2022-10-19T20:19:09.613Z,7.96
2022-10-19T20:21:38.340Z,7.88
2022-10-19T20:24:06.627Z,7.79
2022-10-19T20:26:34.895Z,7.68
2022-10-19T20:29:05.108Z,7.68
2022-10-19T20:31:39.172Z,7.61
2022-10-19T20:34:14.817Z,7.57
2022-10-19T20:36:43.227Z,7.51
2022-10-19T20:39:12.171Z,7.66
2022-10-19T20:41:39.854Z,7.72
2022-10-19T20:44:07.438Z,7.66
2022-10-19T20:46:36.938Z,7.70
2022-10-19T20:49:04.996Z,7.65
2022-10-19T20:51:36.780Z,7.59
2022-10-19T20:54:07.500Z,7.37
2022-10-19T20:56:37.065Z,7.40
2022-10-19T20:59:07.408Z,7.55
2022-10-19T21:01:37.757Z,7.83
2022-10-19T21:04:07.096Z,7.93
2022-10-19T21:06:38.241Z,8.02
2022-10-19T21:09:06.346Z,8.15
2022-10-19T21:11:36.372Z,8.06
2022-10-19T21:14:14.010Z,7.77
2022-10-19T21:16:42.063Z,7.69
2022-10-19T21:19:16.624Z,7.50
2022-10-19T21:21:45.961Z,7.39
2022-10-19T21:24:17.007Z,7.32
2022-10-19T21:26:44.764Z,7.38
2022-10-19T21:29:14.148Z,7.22
2022-10-19T21:31:46.434Z,7.29
2022-10-19T21:34:18.893Z,7.00
2022-10-19T21:36:47.074Z,6.86
2022-10-19T21:39:14.761Z,6.79
2022-10-19T21:41:42.225Z,6.87
2022-10-19T21:44:10.069Z,6.90
2022-10-19T21:46:37.606Z,6.93
2022-10-19T21:49:05.057Z,6.99
2022-10-19T21:51:45.025Z,7.03
2022-10-19T21:54:15.433Z,7.35
2022-10-19T21:56:43.469Z,7.87
2022-10-19T21:59:12.174Z,7.46
2022-10-19T22:01:41.582Z,7.41
2022-10-19T22:04:13.252Z,7.01
2022-10-19T22:06:41.614Z,7.14
2022-10-19T22:09:12.438Z,7.02
2022-10-19T22:11:40.072Z,7.00
2022-10-19T22:14:07.548Z,6.89
2022-10-19T22:16:36.869Z,6.77
2022-10-19T22:19:06.055Z,6.54
2022-10-19T22:21:34.958Z,6.59
2022-10-19T22:24:06.607Z,6.47
2022-10-19T22:26:38.003Z,6.30
2022-10-19T22:29:07.396Z,6.22
2022-10-19T22:31:35.992Z,6.15
2022-10-19T22:34:13.797Z,6.10
2022-10-19T22:36:41.408Z,5.98
2022-10-19T22:39:11.221Z,5.76
2022-10-19T22:41:38.696Z,5.63
2022-10-19T22:44:06.191Z,5.47
2022-10-19T22:46:33.768Z,5.48
2022-10-19T22:49:01.422Z,5.43
2022-10-19T22:51:29.042Z,5.43
2022-10-19T22:53:56.500Z,5.29
2022-10-19T22:56:23.957Z,5.29
2022-10-19T22:58:51.451Z,5.17
2022-10-19T23:01:19.527Z,5.09
2022-10-19T23:03:47.063Z,5.09
2022-10-19T23:06:15.532Z,4.90
2022-10-19T23:08:44.343Z,4.92
2022-10-19T23:11:12.513Z,4.82
2022-10-19T23:13:40.229Z,4.71
2022-10-19T23:16:09.354Z,4.75
2022-10-19T23:18:39.243Z,4.72
2022-10-19T23:21:11.843Z,4.60
2022-10-19T23:23:40.156Z,4.40
2022-10-19T23:26:16.590Z,4.56
2022-10-19T23:28:47.005Z,4.71
2022-10-19T23:31:17.014Z,4.62
2022-10-19T23:33:44.985Z,4.46
2022-10-19T23:36:15.954Z,4.41
2022-10-19T23:38:45.549Z,4.22
2022-10-19T23:41:13.900Z,4.14
2022-10-19T23:43:41.865Z,4.20
2022-10-19T23:46:09.689Z,4.18
2022-10-19T23:48:37.463Z,4.22
2022-10-19T23:51:16.722Z,4.13
2022-10-19T23:53:46.087Z,4.12
2022-10-19T23:56:15.271Z,4.00
2022-10-19T23:58:43.666Z,4.10
